createdAt,value
2016-07-06T00:00:25.120Z,1011.42
2016-07-06T00:00:55.100Z,1011.42
2016-07-06T00:01:25.152Z,1011.4
2016-07-06T00:01:54.530Z,1011.47
2016-07-06T00:02:25.176Z,1011.42
2016-07-06T00:02:53.319Z,1011.45
2016-07-06T00:03:24.569Z,1011.42
2016-07-06T00:03:53.974Z,1011.4
2016-07-06T00:04:23.991Z,1011.41
2016-07-06T00:04:55.233Z,1011.39
2016-07-06T00:05:25.258Z,1011.39
2016-07-06T00:05:55.271Z,1011.38
2016-07-06T00:06:24.678Z,1011.43
2016-07-06T00:06:55.310Z,1011.42
2016-07-06T00:07:24.687Z,1011.46
2016-07-06T00:07:54.717Z,1011.43
2016-07-06T00:08:24.102Z,1011.42
2016-07-06T00:08:55.351Z,1011.46
2016-07-06T00:09:24.137Z,1011.43
2016-07-06T00:09:55.395Z,1011.46
2016-07-06T00:10:24.778Z,1011.49
2016-07-06T00:10:55.411Z,1011.47
2016-07-06T00:11:24.202Z,1011.46
2016-07-06T00:11:55.411Z,1011.45
2016-07-06T00:12:25.448Z,1011.46
2016-07-06T00:12:55.463Z,1011.5
2016-07-06T00:13:25.481Z,1011.49
2016-07-06T00:13:55.487Z,1011.5
2016-07-06T00:14:25.509Z,1011.51
2016-07-06T00:14:55.525Z,1011.48
2016-07-06T00:15:24.306Z,1011.52
2016-07-06T00:15:54.943Z,1011.49
2016-07-06T00:16:25.565Z,1011.49
2016-07-06T00:16:55.594Z,1011.49
2016-07-06T00:17:25.602Z,1011.53
2016-07-06T00:17:54.996Z,1011.55
2016-07-06T00:18:25.618Z,1011.51
2016-07-06T00:18:55.001Z,1011.52
2016-07-06T00:19:24.413Z,1011.51
2016-07-06T00:19:54.415Z,1011.56
2016-07-06T00:20:25.044Z,1011.54
2016-07-06T00:20:54.471Z,1011.55
2016-07-06T00:21:25.701Z,1011.55
2016-07-06T00:21:54.490Z,1011.56
2016-07-06T00:22:25.715Z,1011.54
2016-07-06T00:22:55.732Z,1011.56
2016-07-06T00:23:25.757Z,1011.53
2016-07-06T00:23:55.157Z,1011.53
2016-07-06T00:24:25.778Z,1011.52
2016-07-06T00:24:55.776Z,1011.51
2016-07-06T00:25:25.168Z,1011.47
2016-07-06T00:25:54.574Z,1011.49
2016-07-06T00:26:25.825Z,1011.51
2016-07-06T00:26:54.603Z,1011.51
2016-07-06T00:27:25.850Z,1011.51
2016-07-06T00:27:55.864Z,1011.51
2016-07-06T00:28:25.268Z,1011.53
2016-07-06T00:28:55.302Z,1011.54
2016-07-06T00:29:25.285Z,1011.55
2016-07-06T00:29:55.323Z,1011.48
2016-07-06T00:30:25.953Z,1011.53
2016-07-06T00:30:55.363Z,1011.51
2016-07-06T00:31:25.381Z,1011.52
2016-07-06T00:31:56.002Z,1011.55
2016-07-06T00:32:24.805Z,1011.53
2016-07-06T00:32:55.411Z,1011.52
2016-07-06T00:33:26.018Z,1011.53
2016-07-06T00:33:54.818Z,1011.49
2016-07-06T00:34:26.048Z,1011.5
2016-07-06T00:34:55.446Z,1011.52
2016-07-06T00:35:25.488Z,1011.49
2016-07-06T00:35:55.496Z,1011.54
2016-07-06T00:36:26.123Z,1011.52
2016-07-06T00:36:56.134Z,1011.5
2016-07-06T00:37:26.127Z,1011.53
2016-07-06T00:37:55.569Z,1011.53
2016-07-06T00:38:25.573Z,1011.54
2016-07-06T00:38:56.208Z,1011.54
2016-07-06T00:39:26.200Z,1011.48
2016-07-06T00:39:55.579Z,1011.5
2016-07-06T00:40:25.631Z,1011.48
2016-07-06T00:40:56.217Z,1011.47
2016-07-06T00:41:24.430Z,1011.53
2016-07-06T00:41:55.673Z,1011.49
2016-07-06T00:42:25.692Z,1011.49
2016-07-06T00:42:55.689Z,1011.47
2016-07-06T00:43:26.335Z,1011.44
2016-07-06T00:43:56.349Z,1011.48
2016-07-06T00:44:26.353Z,1011.45
2016-07-06T00:44:56.365Z,1011.4
2016-07-06T00:45:26.389Z,1011.4
2016-07-06T00:45:56.386Z,1011.43
2016-07-06T00:46:25.772Z,1011.44
2016-07-06T00:46:56.442Z,1011.41
2016-07-06T00:47:26.447Z,1011.42
2016-07-06T00:47:56.454Z,1011.4
2016-07-06T00:48:26.471Z,1011.42
2016-07-06T00:48:56.503Z,1011.41
2016-07-06T00:49:26.502Z,1011.42
2016-07-06T00:49:55.897Z,1011.41
2016-07-06T00:50:25.906Z,1011.38
2016-07-06T00:50:56.540Z,1011.4
2016-07-06T00:51:26.553Z,1011.39
2016-07-06T00:51:55.955Z,1011.37
2016-07-06T00:52:25.949Z,1011.4
2016-07-06T00:52:56.594Z,1011.4
2016-07-06T00:53:26.585Z,1011.39
2016-07-06T00:53:56.626Z,1011.34
2016-07-06T00:54:26.018Z,1011.39
2016-07-06T00:54:56.634Z,1011.38
2016-07-06T00:55:26.056Z,1011.42
2016-07-06T00:55:56.690Z,1011.42
2016-07-06T00:56:26.687Z,1011.4
2016-07-06T00:56:56.093Z,1011.4
2016-07-06T00:57:26.709Z,1011.41
2016-07-06T00:57:56.101Z,1011.46
2016-07-06T00:58:26.758Z,1011.43
2016-07-06T00:58:56.772Z,1011.45
2016-07-06T00:59:26.172Z,1011.45
2016-07-06T00:59:56.189Z,1011.47
2016-07-06T01:00:26.197Z,1011.46
2016-07-06T01:00:55.599Z,1011.45
2016-07-06T01:01:26.843Z,1011.48
2016-07-06T01:01:56.845Z,1011.51
2016-07-06T01:02:25.022Z,1011.47
2016-07-06T01:02:56.261Z,1011.49
2016-07-06T01:03:26.903Z,1011.49
2016-07-06T01:03:56.288Z,1011.46
2016-07-06T01:04:26.315Z,1011.5
2016-07-06T01:04:56.333Z,1011.47
2016-07-06T01:05:26.343Z,1011.49
2016-07-06T01:05:56.965Z,1011.49
2016-07-06T01:06:25.128Z,1011.53
2016-07-06T01:06:56.363Z,1011.53
2016-07-06T01:07:26.401Z,1011.51
2016-07-06T01:07:57.027Z,1011.51
2016-07-06T01:08:26.817Z,1011.54
2016-07-06T01:08:56.562Z,1011.51
2016-07-06T01:09:27.313Z,1011.57
2016-07-06T01:09:56.875Z,1011.54
2016-07-06T01:10:27.377Z,1011.55
2016-07-06T01:10:57.384Z,1011.54
2016-07-06T01:11:27.309Z,1011.58
2016-07-06T01:11:56.692Z,1011.57
2016-07-06T01:12:27.145Z,1011.6
2016-07-06T01:12:57.173Z,1011.62
2016-07-06T01:13:27.173Z,1011.55
2016-07-06T01:13:56.574Z,1011.56
2016-07-06T01:14:26.590Z,1011.58
2016-07-06T01:14:57.218Z,1011.57
2016-07-06T01:15:26.599Z,1011.55
2016-07-06T01:15:57.217Z,1011.58
2016-07-06T01:16:26.619Z,1011.56
2016-07-06T01:16:57.265Z,1011.56
2016-07-06T01:17:26.048Z,1011.58
2016-07-06T01:17:56.677Z,1011.58
2016-07-06T01:18:27.292Z,1011.53
2016-07-06T01:18:55.463Z,1011.56
2016-07-06T01:19:26.711Z,1011.54
2016-07-06T01:19:56.732Z,1011.57
2016-07-06T01:20:26.741Z,1011.55
2016-07-06T01:20:56.780Z,1011.53
2016-07-06T01:21:26.778Z,1011.52
2016-07-06T01:21:56.200Z,1011.5
2016-07-06T01:22:27.428Z,1011.47
2016-07-06T01:22:57.431Z,1011.49
2016-07-06T01:23:26.832Z,1011.53
2016-07-06T01:23:56.228Z,1011.5
2016-07-06T01:24:26.218Z,1011.51
2016-07-06T01:24:57.494Z,1011.51
2016-07-06T01:25:26.878Z,1011.53
2016-07-06T01:25:56.889Z,1011.54
2016-07-06T01:26:26.890Z,1011.53
2016-07-06T01:26:56.935Z,1011.57
2016-07-06T01:27:27.542Z,1011.58
2016-07-06T01:27:57.573Z,1011.58
2016-07-06T01:28:27.569Z,1011.56
2016-07-06T01:28:56.985Z,1011.59
2016-07-06T01:29:27.608Z,1011.57
2016-07-06T01:29:56.990Z,1011.52
2016-07-06T01:30:27.025Z,1011.56
2016-07-06T01:30:57.661Z,1011.59
2016-07-06T01:31:27.051Z,1011.58
2016-07-06T01:31:57.683Z,1011.58
2016-07-06T01:32:27.681Z,1011.6
2016-07-06T01:32:56.493Z,1011.6
2016-07-06T01:33:27.723Z,1011.59
2016-07-06T01:33:57.095Z,1011.59
2016-07-06T01:34:27.155Z,1011.64
2016-07-06T01:34:57.771Z,1011.63
2016-07-06T01:35:27.778Z,1011.66
2016-07-06T01:35:57.191Z,1011.67
2016-07-06T01:36:27.806Z,1011.67
2016-07-06T01:36:57.836Z,1011.64
2016-07-06T01:37:26.594Z,1011.66
2016-07-06T01:37:57.255Z,1011.66
2016-07-06T01:38:27.875Z,1011.68
2016-07-06T01:38:57.891Z,1011.71
2016-07-06T01:39:27.914Z,1011.67
2016-07-06T01:39:57.915Z,1011.69
2016-07-06T01:40:27.309Z,1011.65
2016-07-06T01:40:57.946Z,1011.7
2016-07-06T01:41:27.960Z,1011.69
2016-07-06T01:41:57.970Z,1011.69
2016-07-06T01:42:26.742Z,1011.67
2016-07-06T01:42:57.360Z,1011.69
2016-07-06T01:43:28.019Z,1011.65
2016-07-06T01:43:58.007Z,1011.68
2016-07-06T01:44:28.032Z,1011.62
2016-07-06T01:44:57.453Z,1011.65
2016-07-06T01:45:28.059Z,1011.66
2016-07-06T01:45:58.088Z,1011.66
2016-07-06T01:46:27.475Z,1011.7
2016-07-06T01:46:57.502Z,1011.66
2016-07-06T01:47:28.110Z,1011.69
2016-07-06T01:47:58.110Z,1011.67
2016-07-06T01:48:27.541Z,1011.65
2016-07-06T01:48:58.160Z,1011.67
2016-07-06T01:49:28.183Z,1011.67
2016-07-06T01:49:57.581Z,1011.68
2016-07-06T01:50:28.211Z,1011.67
2016-07-06T01:50:58.217Z,1011.7
2016-07-06T01:51:28.236Z,1011.68
2016-07-06T01:51:57.650Z,1011.68
2016-07-06T01:52:27.008Z,1011.68
2016-07-06T01:52:58.274Z,1011.68
2016-07-06T01:53:28.286Z,1011.68
2016-07-06T01:53:58.289Z,1011.72
2016-07-06T01:54:28.310Z,1011.71
2016-07-06T01:54:58.340Z,1011.69
2016-07-06T01:55:28.333Z,1011.72
2016-07-06T01:55:57.744Z,1011.73
2016-07-06T01:56:28.378Z,1011.73
2016-07-06T01:56:57.742Z,1011.76
2016-07-06T01:57:28.387Z,1011.78
2016-07-06T01:57:58.412Z,1011.74
2016-07-06T01:58:27.815Z,1011.8
2016-07-06T01:58:58.457Z,1011.78
2016-07-06T01:59:28.483Z,1011.82
2016-07-06T01:59:57.867Z,1011.81
2016-07-06T02:00:27.878Z,1011.8
2016-07-06T02:00:57.898Z,1011.79
2016-07-06T02:01:27.925Z,1011.83
2016-07-06T02:01:57.913Z,1011.84
2016-07-06T02:02:26.712Z,1011.84
2016-07-06T02:02:57.953Z,1011.82
2016-07-06T02:03:28.570Z,1011.86
2016-07-06T02:03:57.976Z,1011.86
2016-07-06T02:04:28.607Z,1011.85
2016-07-06T02:04:58.618Z,1011.86
2016-07-06T02:05:28.634Z,1011.84
2016-07-06T02:05:58.648Z,1011.8
2016-07-06T02:06:28.667Z,1011.85
2016-07-06T02:06:58.667Z,1011.81
2016-07-06T02:07:28.696Z,1011.8
2016-07-06T02:07:58.100Z,1011.82
2016-07-06T02:08:28.100Z,1011.81
2016-07-06T02:08:58.117Z,1011.8
2016-07-06T02:09:28.137Z,1011.82
2016-07-06T02:09:58.739Z,1011.8
2016-07-06T02:10:28.764Z,1011.8
2016-07-06T02:10:58.164Z,1011.8
2016-07-06T02:11:28.780Z,1011.8
2016-07-06T02:11:58.805Z,1011.8
2016-07-06T02:12:28.847Z,1011.81
2016-07-06T02:12:58.235Z,1011.83
2016-07-06T02:13:28.243Z,1011.79
2016-07-06T02:13:58.263Z,1011.82
2016-07-06T02:14:28.889Z,1011.79
2016-07-06T02:14:58.889Z,1011.78
2016-07-06T02:15:28.299Z,1011.79
2016-07-06T02:15:58.304Z,1011.74
2016-07-06T02:16:28.944Z,1011.75
2016-07-06T02:16:58.959Z,1011.72
2016-07-06T02:17:28.966Z,1011.77
2016-07-06T02:17:57.150Z,1011.73
2016-07-06T02:18:28.397Z,1011.71
2016-07-06T02:18:59.009Z,1011.71
2016-07-06T02:19:28.404Z,1011.73
2016-07-06T02:19:59.043Z,1011.65
2016-07-06T02:20:29.054Z,1011.66
2016-07-06T02:20:58.464Z,1011.64
2016-07-06T02:21:28.463Z,1011.66
2016-07-06T02:21:59.094Z,1011.62
2016-07-06T02:22:29.112Z,1011.66
2016-07-06T02:22:58.530Z,1011.65
2016-07-06T02:23:28.517Z,1011.65
2016-07-06T02:23:59.159Z,1011.68
2016-07-06T02:24:27.315Z,1011.68
2016-07-06T02:24:57.952Z,1011.65
2016-07-06T02:25:27.965Z,1011.65
2016-07-06T02:25:59.208Z,1011.66
2016-07-06T02:26:29.228Z,1011.64
2016-07-06T02:26:59.239Z,1011.67
2016-07-06T02:27:29.248Z,1011.67
2016-07-06T02:27:59.259Z,1011.62
2016-07-06T02:28:29.283Z,1011.65
2016-07-06T02:28:59.308Z,1011.65
2016-07-06T02:29:28.694Z,1011.63
2016-07-06T02:29:58.096Z,1011.64
2016-07-06T02:30:29.340Z,1011.6
2016-07-06T02:30:59.317Z,1011.64
2016-07-06T02:31:28.719Z,1011.6
2016-07-06T02:31:58.143Z,1011.62
2016-07-06T02:32:27.530Z,1011.64
2016-07-06T02:32:58.759Z,1011.61
2016-07-06T02:33:28.786Z,1011.59
2016-07-06T02:33:59.430Z,1011.56
2016-07-06T02:34:28.822Z,1011.53
2016-07-06T02:34:58.809Z,1011.51
2016-07-06T02:35:28.828Z,1011.53
2016-07-06T02:35:58.847Z,1011.53
2016-07-06T02:36:28.878Z,1011.49
2016-07-06T02:36:59.486Z,1011.51
2016-07-06T02:37:28.879Z,1011.5
2016-07-06T02:37:59.536Z,1011.52
2016-07-06T02:38:28.925Z,1011.57
2016-07-06T02:38:59.566Z,1011.59
2016-07-06T02:39:28.963Z,1011.61
2016-07-06T02:39:58.367Z,1011.6
2016-07-06T02:40:29.613Z,1011.61
2016-07-06T02:40:58.400Z,1011.65
2016-07-06T02:41:29.025Z,1011.61
2016-07-06T02:41:59.042Z,1011.61
2016-07-06T02:42:29.687Z,1011.62
2016-07-06T02:42:59.676Z,1011.65
2016-07-06T02:43:29.698Z,1011.65
2016-07-06T02:43:59.716Z,1011.65
2016-07-06T02:44:29.728Z,1011.62
2016-07-06T02:44:59.120Z,1011.67
2016-07-06T02:45:29.751Z,1011.66
2016-07-06T02:45:58.494Z,1011.67
2016-07-06T02:46:29.774Z,1011.65
2016-07-06T02:46:59.788Z,1011.64
2016-07-06T02:47:29.776Z,1011.64
2016-07-06T02:47:59.168Z,1011.64
2016-07-06T02:48:29.830Z,1011.63
2016-07-06T02:48:59.224Z,1011.63
2016-07-06T02:49:29.223Z,1011.65
2016-07-06T02:49:59.845Z,1011.65
2016-07-06T02:50:29.891Z,1011.66
2016-07-06T02:50:59.897Z,1011.67
2016-07-06T02:51:29.289Z,1011.64
2016-07-06T02:51:59.926Z,1011.66
2016-07-06T02:52:29.327Z,1011.62
2016-07-06T02:52:59.973Z,1011.64
2016-07-06T02:53:29.972Z,1011.59
2016-07-06T02:53:59.975Z,1011.6
2016-07-06T02:54:30.005Z,1011.63
2016-07-06T02:54:58.787Z,1011.62
2016-07-06T02:55:29.412Z,1011.61
2016-07-06T02:55:58.804Z,1011.58
2016-07-06T02:56:30.049Z,1011.57
2016-07-06T02:57:00.079Z,1011.6
2016-07-06T02:57:30.089Z,1011.61
2016-07-06T02:58:00.109Z,1011.6
2016-07-06T02:58:28.893Z,1011.62
2016-07-06T02:58:58.902Z,1011.66
2016-07-06T02:59:29.529Z,1011.66
2016-07-06T03:00:00.160Z,1011.67
2016-07-06T03:00:30.168Z,1011.68
2016-07-06T03:00:59.576Z,1011.6
2016-07-06T03:01:30.203Z,1011.64
2016-07-06T03:01:59.604Z,1011.71
2016-07-06T03:02:29.610Z,1011.7
2016-07-06T03:02:59.631Z,1011.7
2016-07-06T03:03:30.260Z,1011.69
2016-07-06T03:04:00.263Z,1011.7
2016-07-06T03:04:29.670Z,1011.69
2016-07-06T03:05:00.303Z,1011.7
2016-07-06T03:05:29.099Z,1011.66
2016-07-06T03:05:59.101Z,1011.66
2016-07-06T03:06:29.729Z,1011.69
2016-07-06T03:06:59.734Z,1011.68
2016-07-06T03:07:29.749Z,1011.66
2016-07-06T03:07:59.767Z,1011.63
2016-07-06T03:08:29.147Z,1011.64
2016-07-06T03:08:59.159Z,1011.67
2016-07-06T03:09:29.784Z,1011.63
2016-07-06T03:10:00.416Z,1011.67
2016-07-06T03:10:29.835Z,1011.72
2016-07-06T03:11:00.442Z,1011.7
2016-07-06T03:11:29.255Z,1011.71
2016-07-06T03:12:00.509Z,1011.72
2016-07-06T03:12:30.470Z,1011.77
2016-07-06T03:13:00.529Z,1011.74
2016-07-06T03:13:29.918Z,1011.77
2016-07-06T03:13:59.277Z,1011.77
2016-07-06T03:14:30.552Z,1011.75
2016-07-06T03:14:59.942Z,1011.76
2016-07-06T03:15:30.562Z,1011.75
2016-07-06T03:16:00.581Z,1011.72
2016-07-06T03:16:30.608Z,1011.73
2016-07-06T03:16:59.984Z,1011.72
2016-07-06T03:17:29.988Z,1011.69
2016-07-06T03:18:00.627Z,1011.69
2016-07-06T03:18:30.634Z,1011.67
2016-07-06T03:19:00.663Z,1011.67
2016-07-06T03:19:29.448Z,1011.7
2016-07-06T03:20:00.683Z,1011.69
2016-07-06T03:20:29.472Z,1011.63
2016-07-06T03:21:00.112Z,1011.69
2016-07-06T03:21:30.123Z,1011.67
2016-07-06T03:22:00.178Z,1011.68
2016-07-06T03:22:29.543Z,1011.7
2016-07-06T03:22:59.567Z,1011.69
2016-07-06T03:23:30.193Z,1011.72
2016-07-06T03:24:00.215Z,1011.71
2016-07-06T03:24:30.828Z,1011.75
2016-07-06T03:25:00.826Z,1011.74
2016-07-06T03:25:30.872Z,1011.74
2016-07-06T03:26:00.266Z,1011.77
2016-07-06T03:26:30.891Z,1011.8
2016-07-06T03:27:00.919Z,1011.82
2016-07-06T03:27:29.695Z,1011.82
2016-07-06T03:28:00.333Z,1011.83
2016-07-06T03:28:29.731Z,1011.86
2016-07-06T03:29:00.982Z,1011.84
2016-07-06T03:29:30.996Z,1011.87
2016-07-06T03:30:01.001Z,1011.87
2016-07-06T03:30:31.039Z,1011.89
2016-07-06T03:31:01.022Z,1011.89
2016-07-06T03:31:31.046Z,1011.9
2016-07-06T03:32:01.064Z,1011.89
2016-07-06T03:32:29.840Z,1011.91
2016-07-06T03:33:00.468Z,1011.94
2016-07-06T03:33:31.104Z,1011.9
2016-07-06T03:34:01.124Z,1011.89
2016-07-06T03:34:31.125Z,1011.9
2016-07-06T03:35:01.136Z,1011.87
2016-07-06T03:35:29.925Z,1011.88
2016-07-06T03:36:00.549Z,1011.86
2016-07-06T03:36:30.567Z,1011.83
2016-07-06T03:37:00.569Z,1011.83
2016-07-06T03:37:31.196Z,1011.86
2016-07-06T03:38:00.615Z,1011.8
2016-07-06T03:38:30.005Z,1011.85
2016-07-06T03:39:00.635Z,1011.83
2016-07-06T03:39:30.042Z,1011.83
2016-07-06T03:40:00.048Z,1011.8
2016-07-06T03:40:30.675Z,1011.78
2016-07-06T03:41:01.314Z,1011.8
2016-07-06T03:41:31.322Z,1011.79
2016-07-06T03:42:01.337Z,1011.81
2016-07-06T03:42:31.363Z,1011.81
2016-07-06T03:43:01.357Z,1011.81
2016-07-06T03:43:30.144Z,1011.81
2016-07-06T03:44:01.388Z,1011.84
2016-07-06T03:44:31.405Z,1011.8
2016-07-06T03:45:00.778Z,1011.84
2016-07-06T03:45:31.443Z,1011.82
2016-07-06T03:46:00.830Z,1011.86
2016-07-06T03:46:31.474Z,1011.86
2016-07-06T03:47:00.246Z,1011.87
2016-07-06T03:47:30.863Z,1011.87
2016-07-06T03:48:01.483Z,1011.89
2016-07-06T03:48:31.485Z,1011.92
2016-07-06T03:49:00.908Z,1011.93
2016-07-06T03:49:30.285Z,1011.94
2016-07-06T03:50:00.923Z,1011.97
2016-07-06T03:50:31.544Z,1011.97
2016-07-06T03:51:00.939Z,1011.97
2016-07-06T03:51:30.950Z,1012
2016-07-06T03:52:00.378Z,1011.99
2016-07-06T03:52:30.395Z,1011.99
2016-07-06T03:53:01.017Z,1012
2016-07-06T03:53:31.059Z,1012.01
2016-07-06T03:54:01.053Z,1012.02
2016-07-06T03:54:31.068Z,1012.01
2016-07-06T03:55:01.088Z,1012.02
2016-07-06T03:55:31.096Z,1011.99
2016-07-06T03:56:01.724Z,1011.97
2016-07-06T03:56:31.123Z,1012.01
2016-07-06T03:57:01.759Z,1011.98
2016-07-06T03:57:31.765Z,1012.02
2016-07-06T03:58:01.141Z,1012
2016-07-06T03:58:30.568Z,1011.99
2016-07-06T03:59:01.783Z,1011.97
2016-07-06T03:59:31.188Z,1012.01
2016-07-06T04:00:01.820Z,1011.99
2016-07-06T04:00:30.613Z,1011.99
2016-07-06T04:01:00.608Z,1012.01
2016-07-06T04:01:30.626Z,1012.01
2016-07-06T04:02:01.234Z,1011.99
2016-07-06T04:02:30.646Z,1012.02
2016-07-06T04:03:01.900Z,1011.97
2016-07-06T04:03:31.295Z,1011.99
2016-07-06T04:04:00.717Z,1012.06
2016-07-06T04:04:31.970Z,1012.07
2016-07-06T04:05:01.985Z,1012.09
2016-07-06T04:05:32.001Z,1012.07
2016-07-06T04:06:01.416Z,1012.06
2016-07-06T04:06:30.792Z,1012.08
2016-07-06T04:07:02.013Z,1012.07
2016-07-06T04:07:31.425Z,1012.08
2016-07-06T04:08:01.452Z,1012.1
2016-07-06T04:08:31.447Z,1012.1
2016-07-06T04:09:01.475Z,1012.14
2016-07-06T04:09:32.114Z,1012.15
2016-07-06T04:10:02.118Z,1012.14
2016-07-06T04:10:32.102Z,1012.1
2016-07-06T04:11:02.142Z,1012.1
2016-07-06T04:11:31.540Z,1012.07
2016-07-06T04:12:02.147Z,1012.03
2016-07-06T04:12:31.553Z,1012.06
2016-07-06T04:13:02.200Z,1012.07
2016-07-06T04:13:32.203Z,1012.02
2016-07-06T04:14:02.208Z,1012.01
2016-07-06T04:14:31.637Z,1012.05
2016-07-06T04:15:01.645Z,1012.01
2016-07-06T04:15:31.634Z,1011.97
2016-07-06T04:16:02.280Z,1011.99
2016-07-06T04:16:32.279Z,1011.93
2016-07-06T04:17:02.314Z,1011.92
2016-07-06T04:17:31.705Z,1011.95
2016-07-06T04:18:01.690Z,1011.92
2016-07-06T04:18:32.326Z,1011.92
2016-07-06T04:19:02.346Z,1011.92
2016-07-06T04:19:32.382Z,1011.93
2016-07-06T04:20:01.773Z,1011.94
2016-07-06T04:20:32.391Z,1011.9
2016-07-06T04:21:02.419Z,1011.96
2016-07-06T04:21:32.420Z,1011.96
2016-07-06T04:22:01.832Z,1011.95
2016-07-06T04:22:31.845Z,1011.99
2016-07-06T04:23:02.480Z,1012
2016-07-06T04:23:32.496Z,1011.98
2016-07-06T04:24:00.663Z,1012.02
2016-07-06T04:24:32.521Z,1012.03
2016-07-06T04:25:01.927Z,1012.04
2016-07-06T04:25:31.945Z,1012.06
2016-07-06T04:26:02.582Z,1012.05
2016-07-06T04:26:30.720Z,1012.05
2016-07-06T04:27:01.957Z,1012.02
2016-07-06T04:27:31.359Z,1012.06
2016-07-06T04:28:02.611Z,1012.06
2016-07-06T04:28:31.995Z,1012.1
2016-07-06T04:29:01.996Z,1012.05
2016-07-06T04:29:32.636Z,1012.08
2016-07-06T04:30:02.020Z,1012.06
2016-07-06T04:30:32.072Z,1012.07
2016-07-06T04:31:02.689Z,1012.07
2016-07-06T04:31:32.096Z,1012.09
2016-07-06T04:32:02.110Z,1012.09
2016-07-06T04:32:32.120Z,1012.1
2016-07-06T04:33:02.147Z,1012.1
2016-07-06T04:33:32.752Z,1012.13
2016-07-06T04:34:02.166Z,1012.12
2016-07-06T04:34:30.941Z,1012.18
2016-07-06T04:35:01.576Z,1012.16
2016-07-06T04:35:32.824Z,1012.19
2016-07-06T04:36:02.848Z,1012.19
2016-07-06T04:36:32.850Z,1012.24
2016-07-06T04:37:02.860Z,1012.23
2016-07-06T04:37:32.886Z,1012.24
2016-07-06T04:38:01.063Z,1012.27
2016-07-06T04:38:31.676Z,1012.26
2016-07-06T04:39:02.914Z,1012.29
2016-07-06T04:39:32.946Z,1012.32
2016-07-06T04:40:01.726Z,1012.3
2016-07-06T04:40:32.935Z,1012.29
2016-07-06T04:41:02.344Z,1012.3
2016-07-06T04:41:32.958Z,1012.35
2016-07-06T04:42:02.986Z,1012.35
2016-07-06T04:42:33.032Z,1012.39
2016-07-06T04:43:02.422Z,1012.37
2016-07-06T04:43:33.045Z,1012.39
2016-07-06T04:44:02.414Z,1012.37
2016-07-06T04:44:33.039Z,1012.38
2016-07-06T04:45:02.446Z,1012.38
2016-07-06T04:45:33.067Z,1012.38
2016-07-06T04:46:02.500Z,1012.42
2016-07-06T04:46:32.482Z,1012.4
2016-07-06T04:47:02.497Z,1012.37
2016-07-06T04:47:33.157Z,1012.43
2016-07-06T04:48:03.184Z,1012.44
2016-07-06T04:48:33.190Z,1012.42
2016-07-06T04:49:02.589Z,1012.42
2016-07-06T04:49:33.220Z,1012.39
2016-07-06T04:50:03.219Z,1012.42
2016-07-06T04:50:32.016Z,1012.43
2016-07-06T04:51:02.647Z,1012.44
2016-07-06T04:51:33.243Z,1012.43
2016-07-06T04:52:02.678Z,1012.42
2016-07-06T04:52:33.298Z,1012.45
2016-07-06T04:53:03.316Z,1012.41
2016-07-06T04:53:32.106Z,1012.44
2016-07-06T04:54:02.737Z,1012.43
2016-07-06T04:54:33.360Z,1012.44
2016-07-06T04:55:03.373Z,1012.38
2016-07-06T04:55:32.770Z,1012.41
2016-07-06T04:56:02.142Z,1012.39
2016-07-06T04:56:32.809Z,1012.45
2016-07-06T04:57:02.827Z,1012.46
2016-07-06T04:57:33.438Z,1012.43
2016-07-06T04:58:03.458Z,1012.45
2016-07-06T04:58:32.864Z,1012.44
2016-07-06T04:59:02.872Z,1012.47
2016-07-06T04:59:32.274Z,1012.44
2016-07-06T05:00:02.903Z,1012.45
2016-07-06T05:00:32.912Z,1012.45
2016-07-06T05:01:03.553Z,1012.49
2016-07-06T05:01:32.928Z,1012.46
2016-07-06T05:02:03.568Z,1012.47
2016-07-06T05:02:32.970Z,1012.48
2016-07-06T05:03:02.383Z,1012.49
2016-07-06T05:03:33.003Z,1012.51
2016-07-06T05:04:03.638Z,1012.5
2016-07-06T05:04:33.013Z,1012.51
2016-07-06T05:05:02.427Z,1012.54
2016-07-06T05:05:33.055Z,1012.5
2016-07-06T05:06:03.689Z,1012.54
2016-07-06T05:06:33.704Z,1012.5
2016-07-06T05:07:03.110Z,1012.49
2016-07-06T05:07:33.733Z,1012.5
2016-07-06T05:08:03.753Z,1012.53
2016-07-06T05:08:33.751Z,1012.51
2016-07-06T05:09:03.779Z,1012.49
2016-07-06T05:09:33.788Z,1012.48
2016-07-06T05:10:03.190Z,1012.49
2016-07-06T05:10:33.833Z,1012.52
2016-07-06T05:11:03.230Z,1012.48
2016-07-06T05:11:33.213Z,1012.41
2016-07-06T05:12:02.048Z,1012.46
2016-07-06T05:12:32.669Z,1012.49
2016-07-06T05:13:03.283Z,1012.45
2016-07-06T05:13:33.304Z,1012.43
2016-07-06T05:14:03.312Z,1012.43
2016-07-06T05:14:32.703Z,1012.46
2016-07-06T05:15:03.952Z,1012.45
2016-07-06T05:15:33.977Z,1012.49
2016-07-06T05:16:04.002Z,1012.45
2016-07-06T05:16:33.995Z,1012.45
2016-07-06T05:17:04.029Z,1012.48
2016-07-06T05:17:33.411Z,1012.49
2016-07-06T05:18:03.432Z,1012.46
2016-07-06T05:18:33.457Z,1012.44
2016-07-06T05:19:03.456Z,1012.39
2016-07-06T05:19:34.087Z,1012.5
2016-07-06T05:20:04.107Z,1012.48
2016-07-06T05:20:34.125Z,1012.47
2016-07-06T05:21:04.147Z,1012.52
2016-07-06T05:21:34.153Z,1012.56
2016-07-06T05:22:04.161Z,1012.54
2016-07-06T05:22:33.557Z,1012.58
2016-07-06T05:23:03.586Z,1012.56
2016-07-06T05:23:33.594Z,1012.58
2016-07-06T05:24:04.232Z,1012.61
2016-07-06T05:24:34.244Z,1012.58
2016-07-06T05:25:04.260Z,1012.61
2016-07-06T05:25:34.276Z,1012.61
2016-07-06T05:26:04.279Z,1012.64
2016-07-06T05:26:34.298Z,1012.68
2016-07-06T05:27:04.309Z,1012.65
2016-07-06T05:27:34.340Z,1012.6
2016-07-06T05:28:04.354Z,1012.57
2016-07-06T05:28:33.754Z,1012.62
2016-07-06T05:29:04.375Z,1012.62
2016-07-06T05:29:32.544Z,1012.65
2016-07-06T05:30:03.787Z,1012.62
2016-07-06T05:30:33.805Z,1012.65
2016-07-06T05:31:03.194Z,1012.69
2016-07-06T05:31:34.449Z,1012.65
2016-07-06T05:32:03.849Z,1012.69
2016-07-06T05:32:34.479Z,1012.66
2016-07-06T05:33:03.880Z,1012.69
2016-07-06T05:33:34.497Z,1012.68
2016-07-06T05:34:03.283Z,1012.72
2016-07-06T05:34:33.920Z,1012.7
2016-07-06T05:35:03.935Z,1012.73
2016-07-06T05:35:33.940Z,1012.74
2016-07-06T05:36:03.966Z,1012.73
2016-07-06T05:36:33.351Z,1012.71
2016-07-06T05:37:03.380Z,1012.74
2016-07-06T05:37:34.615Z,1012.69
2016-07-06T05:38:04.020Z,1012.68
2016-07-06T05:38:34.649Z,1012.7
2016-07-06T05:39:04.677Z,1012.7
2016-07-06T05:39:34.677Z,1012.74
2016-07-06T05:40:04.090Z,1012.72
2016-07-06T05:40:34.723Z,1012.75
2016-07-06T05:41:04.109Z,1012.74
2016-07-06T05:41:33.524Z,1012.72
2016-07-06T05:42:04.140Z,1012.74
2016-07-06T05:42:34.154Z,1012.67
2016-07-06T05:43:04.781Z,1012.73
2016-07-06T05:43:34.189Z,1012.71
2016-07-06T05:44:03.593Z,1012.69
2016-07-06T05:44:34.842Z,1012.71
2016-07-06T05:45:04.226Z,1012.74
2016-07-06T05:45:34.866Z,1012.76
2016-07-06T05:46:04.255Z,1012.79
2016-07-06T05:46:34.892Z,1012.76
2016-07-06T05:47:04.902Z,1012.8
2016-07-06T05:47:34.916Z,1012.75
2016-07-06T05:48:04.921Z,1012.83
2016-07-06T05:48:34.953Z,1012.82
2016-07-06T05:49:04.961Z,1012.83
2016-07-06T05:49:34.992Z,1012.85
2016-07-06T05:50:03.759Z,1012.8
2016-07-06T05:50:35.007Z,1012.81
2016-07-06T05:51:04.414Z,1012.85
2016-07-06T05:51:35.051Z,1012.84
2016-07-06T05:52:05.051Z,1012.85
2016-07-06T05:52:35.072Z,1012.91
2016-07-06T05:53:04.482Z,1012.84
2016-07-06T05:53:34.485Z,1012.86
2016-07-06T05:54:03.889Z,1012.88
2016-07-06T05:54:34.519Z,1012.85
2016-07-06T05:55:05.144Z,1012.86
2016-07-06T05:55:35.184Z,1012.84
2016-07-06T05:56:05.168Z,1012.88
2016-07-06T05:56:33.955Z,1012.88
2016-07-06T05:57:05.204Z,1012.92
2016-07-06T05:57:34.606Z,1012.85
2016-07-06T05:58:05.223Z,1012.92
2016-07-06T05:58:33.988Z,1012.9
2016-07-06T05:59:05.249Z,1012.92
2016-07-06T05:59:34.630Z,1012.91
2016-07-06T06:00:05.266Z,1012.88
2016-07-06T06:00:34.688Z,1012.87
2016-07-06T06:01:04.701Z,1012.87
2016-07-06T06:01:35.306Z,1012.91
2016-07-06T06:02:05.341Z,1012.92
2016-07-06T06:02:34.745Z,1012.95
2016-07-06T06:03:05.351Z,1012.95
2016-07-06T06:03:35.357Z,1012.94
2016-07-06T06:04:04.755Z,1012.94
2016-07-06T06:04:35.429Z,1012.93